Time;durP1;ratioP1;P1;durP2;ratioP2;P2;SDS_P1;SDS_P2;PMS_P1;PMS_P2;Temp;Humidity;BMP_temperature;BMP_pressure;BME280_temperature;BME280_humidity;BME280_pressure;Samples;Min_cycle;Max_cycle;Signal;HPM_P1;HPM_P2
2024/04/08 00:00:42;;;;;;;18.13;16.70;;;14.40;99.90;;;;;;4976837;28;20037;-67
2024/04/08 00:03:09;;;;;;;17.15;15.63;;;14.40;99.90;;;;;;4991671;28;21079;-66
2024/04/08 00:05:38;;;;;;;17.50;16.23;;;14.40;99.90;;;;;;4979290;28;20061;-70
2024/04/08 00:08:05;;;;;;;16.67;15.30;;;14.30;99.90;;;;;;4989208;28;20050;-70
2024/04/08 00:10:31;;;;;;;16.33;14.95;;;14.20;99.90;;;;;;4996932;28;20069;-68
2024/04/08 00:12:57;;;;;;;15.68;14.57;;;14.00;99.90;;;;;;5008819;28;20125;-69
2024/04/08 00:15:23;;;;;;;15.02;13.98;;;13.90;99.90;;;;;;4997924;28;20042;-68
2024/04/08 00:17:49;;;;;;;15.77;14.40;;;13.90;99.90;;;;;;4959875;28;20107;-68
2024/04/08 00:20:15;;;;;;;15.35;13.90;;;14.00;99.90;;;;;;4993663;28;20948;-70
2024/04/08 00:22:44;;;;;;;14.48;13.38;;;14.10;99.90;;;;;;4975642;28;20053;-69
2024/04/08 00:25:10;;;;;;;15.85;14.05;;;14.10;99.90;;;;;;5007522;28;20312;-69
2024/04/08 00:27:37;;;;;;;13.90;12.93;;;13.90;99.90;;;;;;5000310;28;20050;-69
2024/04/08 00:30:04;;;;;;;14.00;13.00;;;14.00;99.90;;;;;;5019389;28;20057;-69
2024/04/08 00:32:31;;;;;;;14.48;13.35;;;13.90;99.90;;;;;;4977167;28;20148;-70
2024/04/08 00:34:57;;;;;;;16.10;14.57;;;14.00;99.90;;;;;;4977964;28;20072;-68
2024/04/08 00:37:23;;;;;;;15.60;14.20;;;14.10;99.90;;;;;;4995958;28;20790;-69
2024/04/08 00:39:49;;;;;;;15.60;13.65;;;14.00;99.90;;;;;;4978676;28;20124;-69
2024/04/08 00:42:16;;;;;;;14.75;13.05;;;14.00;99.90;;;;;;4979832;28;20104;-69
2024/04/08 00:44:43;;;;;;;18.90;13.40;;;14.00;99.90;;;;;;4991714;28;20057;-68
2024/04/08 00:47:11;;;;;;;15.38;13.90;;;14.00;99.90;;;;;;4984662;28;20541;-69
2024/04/08 00:49:40;;;;;;;14.98;13.73;;;13.90;99.90;;;;;;5002325;28;20092;-69
2024/04/08 00:52:09;;;;;;;14.82;13.40;;;14.00;99.90;;;;;;5003985;28;20041;-69
2024/04/08 00:54:36;;;;;;;14.32;13.00;;;14.00;99.90;;;;;;4984828;28;20060;-69
2024/04/08 00:57:05;;;;;;;14.55;13.25;;;14.00;99.90;;;;;;4977883;28;20034;-67
2024/04/08 00:59:33;;;;;;;15.50;13.95;;;14.00;99.90;;;;;;4993361;28;20111;-69
2024/04/08 01:02:01;;;;;;;15.45;13.43;;;13.90;99.90;;;;;;4976811;28;20054;-68
2024/04/08 01:04:29;;;;;;;14.15;13.02;;;14.00;99.90;;;;;;5002355;28;20074;-68
2024/04/08 01:06:55;;;;;;;15.43;13.90;;;13.90;99.90;;;;;;4988157;28;20505;-69
2024/04/08 01:09:21;;;;;;;15.18;13.68;;;14.00;99.90;;;;;;4978826;28;20089;-69
2024/04/08 01:11:47;;;;;;;14.48;13.52;;;14.00;99.90;;;;;;5002850;28;20096;-70
2024/04/08 01:14:13;;;;;;;14.80;13.35;;;13.90;99.90;;;;;;4999573;28;20148;-70
2024/04/08 01:16:40;;;;;;;14.15;12.82;;;13.80;99.90;;;;;;5001575;28;20571;-67
2024/04/08 01:19:06;;;;;;;14.90;13.60;;;13.80;99.90;;;;;;4993338;28;20041;-69
2024/04/08 01:21:32;;;;;;;14.30;12.95;;;13.80;99.90;;;;;;4986826;28;20060;-69
2024/04/08 01:24:00;;;;;;;14.48;13.25;;;13.80;99.90;;;;;;4979937;28;20069;-69
2024/04/08 01:26:27;;;;;;;16.05;13.32;;;13.80;99.90;;;;;;4983680;28;20042;-69
2024/04/08 01:28:53;;;;;;;13.52;12.60;;;13.80;99.90;;;;;;4992744;28;20621;-71
2024/04/08 01:31:21;;;;;;;14.25;12.93;;;13.80;99.90;;;;;;5011333;28;20504;-70
2024/04/08 01:33:48;;;;;;;14.13;12.73;;;13.90;99.90;;;;;;4994893;28;21292;-70
2024/04/08 01:36:15;;;;;;;13.63;12.40;;;13.80;99.90;;;;;;4960380;28;20030;-70
2024/04/08 01:38:41;;;;;;;14.98;13.32;;;13.80;99.90;;;;;;4998392;28;20613;-68
2024/04/08 01:41:07;;;;;;;14.13;12.70;;;13.70;99.90;;;;;;4964429;28;20045;-69
2024/04/08 01:43:33;;;;;;;14.55;12.93;;;13.70;99.90;;;;;;5009230;28;20900;-69
2024/04/08 01:46:01;;;;;;;14.80;13.32;;;13.60;99.90;;;;;;4978635;28;20050;-69
2024/04/08 01:48:27;;;;;;;14.18;12.93;;;13.70;99.90;;;;;;4996593;28;20046;-70
2024/04/08 01:50:54;;;;;;;14.43;13.02;;;13.70;99.90;;;;;;4958740;28;20042;-70
2024/04/08 01:53:20;;;;;;;15.18;13.77;;;13.80;99.90;;;;;;4970798;28;20078;-71
2024/04/08 01:55:47;;;;;;;14.70;13.32;;;13.70;99.90;;;;;;4968252;28;20038;-70
2024/04/08 01:58:13;;;;;;;14.75;13.07;;;13.80;99.90;;;;;;4993341;28;20053;-73
2024/04/08 02:00:39;;;;;;;14.23;12.90;;;13.80;99.90;;;;;;5000652;28;20034;-71
2024/04/08 02:03:05;;;;;;;16.02;12.93;;;13.70;99.90;;;;;;4987336;28;20072;-72
2024/04/08 02:05:32;;;;;;;14.23;12.75;;;13.50;99.90;;;;;;5016936;28;20106;-72
2024/04/08 02:07:58;;;;;;;13.52;12.27;;;13.40;99.90;;;;;;5011481;28;20073;-73
2024/04/08 02:10:25;;;;;;;17.80;12.68;;;13.40;99.90;;;;;;5000045;28;20145;-74
2024/04/08 02:12:51;;;;;;;13.48;12.30;;;13.40;99.90;;;;;;4980403;28;20793;-75
2024/04/08 02:15:17;;;;;;;13.10;11.70;;;13.30;99.90;;;;;;4997728;28;20638;-74
2024/04/08 02:17:44;;;;;;;15.43;13.57;;;13.30;99.90;;;;;;4991396;28;20054;-72
2024/04/08 02:20:10;;;;;;;14.18;12.35;;;13.30;99.90;;;;;;4956506;28;20060;-72
2024/04/08 02:22:36;;;;;;;12.13;10.93;;;13.40;99.90;;;;;;4965296;28;20042;-71
2024/04/08 02:25:03;;;;;;;12.25;11.05;;;13.40;99.90;;;;;;4992474;28;20041;-72
2024/04/08 02:27:29;;;;;;;12.90;10.07;;;13.30;99.90;;;;;;4975129;28;23935;-71
2024/04/08 02:29:57;;;;;;;14.85;9.95;;;13.10;99.90;;;;;;4994811;28;20493;-69
2024/04/08 02:32:24;;;;;;;16.27;9.18;;;13.10;99.90;;;;;;4979227;28;20041;-74
2024/04/08 02:34:50;;;;;;;12.75;8.68;;;13.00;99.90;;;;;;4985464;28;20049;-69
2024/04/08 02:37:16;;;;;;;14.18;9.63;;;13.00;99.90;;;;;;4990712;28;20030;-69
2024/04/08 02:39:43;;;;;;;11.63;9.10;;;13.00;99.90;;;;;;5009685;28;20038;-70
2024/04/08 02:42:09;;;;;;;12.15;10.05;;;13.00;99.90;;;;;;4957453;28;20050;-68
2024/04/08 02:44:35;;;;;;;9.40;8.50;;;13.10;99.90;;;;;;4982383;28;20116;-70
2024/04/08 02:47:02;;;;;;;11.57;8.60;;;13.10;99.90;;;;;;4991522;28;20038;-69
2024/04/08 02:49:28;;;;;;;11.38;9.20;;;13.10;99.90;;;;;;4990323;28;20050;-71
2024/04/08 02:51:57;;;;;;;10.27;9.40;;;13.10;99.90;;;;;;4976825;28;20119;-69
2024/04/08 02:54:23;;;;;;;13.82;10.40;;;13.10;99.90;;;;;;5011741;28;20045;-71
2024/04/08 02:56:50;;;;;;;18.20;10.77;;;13.20;99.90;;;;;;5006282;28;20052;-69
2024/04/08 02:59:16;;;;;;;11.90;10.40;;;13.20;99.90;;;;;;4952325;28;20103;-70
2024/04/08 03:01:43;;;;;;;13.13;10.65;;;13.20;99.90;;;;;;5005955;28;20042;-71
2024/04/08 03:04:09;;;;;;;11.45;10.50;;;13.10;99.90;;;;;;4992705;28;20927;-70
2024/04/08 03:06:35;;;;;;;14.32;10.98;;;13.10;99.90;;;;;;4978054;28;20125;-69
2024/04/08 03:09:04;;;;;;;13.40;11.90;;;13.10;99.90;;;;;;4988768;28;20511;-70
2024/04/08 03:11:30;;;;;;;17.35;12.23;;;13.00;99.90;;;;;;4972807;28;20042;-71
2024/04/08 03:13:57;;;;;;;14.65;13.13;;;13.00;99.90;;;;;;4956934;28;20590;-70
2024/04/08 03:16:23;;;;;;;14.25;12.48;;;12.80;99.90;;;;;;4979356;28;20492;-70
2024/04/08 03:18:53;;;;;;;14.25;12.80;;;12.90;99.90;;;;;;4994200;28;20491;-71
2024/04/08 03:21:19;;;;;;;16.30;14.80;;;13.00;99.90;;;;;;5005113;28;20053;-70
2024/04/08 03:23:45;;;;;;;16.08;14.55;;;13.10;99.90;;;;;;4995360;28;20420;-70
2024/04/08 03:26:13;;;;;;;19.15;15.73;;;13.20;99.90;;;;;;4991021;28;20048;-70
2024/04/08 03:28:39;;;;;;;19.10;13.75;;;13.30;99.90;;;;;;4990237;28;20057;-70
2024/04/08 03:31:07;;;;;;;15.63;14.10;;;13.20;99.90;;;;;;4990686;28;20091;-69
2024/04/08 03:33:33;;;;;;;17.92;14.35;;;13.20;99.90;;;;;;4979415;28;20076;-70
2024/04/08 03:36:01;;;;;;;16.40;14.23;;;13.10;99.90;;;;;;4982319;28;20512;-70
2024/04/08 03:38:27;;;;;;;16.58;13.50;;;13.00;99.90;;;;;;4976425;28;20046;-71
2024/04/08 03:40:59;;;;;;;15.95;14.27;;;12.90;99.90;;;;;;5003572;28;20041;-69
2024/04/08 03:43:25;;;;;;;14.77;13.40;;;12.90;99.90;;;;;;4980163;28;20037;-69
2024/04/08 03:45:51;;;;;;;15.35;13.77;;;13.00;99.90;;;;;;4995535;28;20037;-69
2024/04/08 03:48:17;;;;;;;15.95;14.55;;;12.90;99.90;;;;;;4994231;28;20553;-68
2024/04/08 03:50:44;;;;;;;17.23;15.43;;;12.90;99.90;;;;;;4994295;28;20037;-70
2024/04/08 03:53:11;;;;;;;18.25;16.27;;;12.80;99.90;;;;;;5007557;28;20084;-70
2024/04/08 03:55:38;;;;;;;18.77;16.63;;;12.80;99.90;;;;;;4993689;28;20038;-69
2024/04/08 03:58:04;;;;;;;17.90;16.40;;;12.90;99.90;;;;;;4991268;28;20592;-71
2024/04/08 04:00:30;;;;;;;19.00;15.93;;;12.80;99.90;;;;;;4991507;28;20233;-70
2024/04/08 04:02:56;;;;;;;17.13;15.40;;;12.80;99.90;;;;;;4982721;28;20123;-70
2024/04/08 04:05:22;;;;;;;19.85;16.50;;;12.80;99.90;;;;;;4992413;28;20638;-70
2024/04/08 04:07:49;;;;;;;18.27;16.52;;;12.90;99.90;;;;;;4992177;28;20132;-71
2024/04/08 04:10:18;;;;;;;17.92;16.08;;;12.70;99.90;;;;;;4992027;28;20049;-69
2024/04/08 04:12:45;;;;;;;17.92;16.05;;;12.70;99.90;;;;;;4993348;28;20502;-69
2024/04/08 04:15:14;;;;;;;18.33;16.30;;;12.90;99.90;;;;;;4990433;28;20054;-71
2024/04/08 04:17:42;;;;;;;21.27;16.45;;;12.90;99.90;;;;;;4974553;28;20057;-70
2024/04/08 04:20:14;;;;;;;17.85;14.90;;;12.90;99.90;;;;;;4995322;28;20060;-70
2024/04/08 04:22:40;;;;;;;13.80;12.25;;;12.70;99.90;;;;;;5011776;28;20046;-71
2024/04/08 04:25:08;;;;;;;11.43;8.90;;;12.60;99.90;;;;;;4990817;28;20049;-69
2024/04/08 04:27:34;;;;;;;16.13;10.82;;;12.30;99.90;;;;;;5010547;28;20053;-71
2024/04/08 04:30:01;;;;;;;22.60;12.23;;;12.10;99.90;;;;;;4998048;28;20054;-70
2024/04/08 04:32:27;;;;;;;19.25;13.43;;;12.20;99.90;;;;;;4997931;28;20033;-70
2024/04/08 04:34:55;;;;;;;20.77;15.10;;;12.20;99.90;;;;;;4980281;28;20045;-70
2024/04/08 04:37:22;;;;;;;21.50;16.42;;;12.30;99.90;;;;;;4975868;28;20052;-69
2024/04/08 04:39:48;;;;;;;21.13;16.27;;;12.40;99.90;;;;;;5003181;28;20610;-73
2024/04/08 04:42:14;;;;;;;22.95;18.25;;;12.40;99.90;;;;;;4979076;28;20069;-71
2024/04/08 04:44:41;;;;;;;23.27;18.05;;;12.40;99.90;;;;;;4997300;28;20104;-68
2024/04/08 04:47:07;;;;;;;23.52;17.02;;;12.50;99.90;;;;;;4995424;28;20096;-71
2024/04/08 04:49:33;;;;;;;26.73;17.95;;;12.50;99.90;;;;;;4997375;28;20050;-71
2024/04/08 04:52:00;;;;;;;25.15;18.27;;;12.50;99.90;;;;;;4980172;28;20065;-71
2024/04/08 04:54:28;;;;;;;28.85;18.55;;;12.50;99.90;;;;;;4994144;28;20053;-70
2024/04/08 04:56:54;;;;;;;28.05;17.45;;;12.50;99.90;;;;;;4992471;28;20731;-69
2024/04/08 04:59:22;;;;;;;29.40;18.73;;;12.50;99.90;;;;;;4976065;28;20053;-69
2024/04/08 05:01:48;;;;;;;25.88;17.73;;;12.40;99.90;;;;;;4983527;28;20507;-71
2024/04/08 05:04:14;;;;;;;25.33;17.73;;;12.40;99.90;;;;;;4977945;28;20184;-69
2024/04/08 05:06:40;;;;;;;25.17;18.20;;;12.40;99.90;;;;;;5000650;28;20951;-71
2024/04/08 05:09:06;;;;;;;25.33;17.35;;;12.40;99.90;;;;;;4977725;28;20123;-71
2024/04/08 05:11:33;;;;;;;23.00;16.30;;;12.40;99.90;;;;;;5000979;28;20067;-70
2024/04/08 05:13:59;;;;;;;20.92;17.13;;;12.40;99.90;;;;;;4992951;28;20036;-70
2024/04/08 05:16:25;;;;;;;21.15;17.08;;;12.40;99.90;;;;;;4994066;28;20559;-70
2024/04/08 05:18:51;;;;;;;22.80;17.30;;;12.30;99.90;;;;;;4984220;28;20620;-71
2024/04/08 05:21:17;;;;;;;27.80;17.98;;;12.30;99.90;;;;;;4973998;28;20038;-70
2024/04/08 05:23:44;;;;;;;27.23;19.52;;;12.40;99.90;;;;;;4978846;28;20679;-69
2024/04/08 05:26:11;;;;;;;23.67;18.63;;;12.40;99.90;;;;;;4996343;28;20525;-70
2024/04/08 05:28:38;;;;;;;21.23;18.13;;;12.50;99.90;;;;;;5023740;28;20576;-71
2024/04/08 05:31:04;;;;;;;20.90;18.45;;;12.50;99.90;;;;;;4974372;28;20034;-70
2024/04/08 05:33:30;;;;;;;22.83;16.95;;;12.50;99.90;;;;;;5007872;28;20706;-70
2024/04/08 05:35:56;;;;;;;18.77;16.20;;;12.50;99.90;;;;;;4991089;28;20041;-69
2024/04/08 05:38:24;;;;;;;24.23;17.05;;;12.60;99.90;;;;;;4981826;28;20076;-69
2024/04/08 05:40:50;;;;;;;20.15;17.85;;;12.70;99.90;;;;;;4995600;28;20245;-70
2024/04/08 05:43:17;;;;;;;19.60;17.10;;;12.60;99.90;;;;;;5015129;28;20271;-69
2024/04/08 05:45:43;;;;;;;23.98;16.98;;;12.60;99.90;;;;;;4976797;28;20042;-69
2024/04/08 05:48:09;;;;;;;20.20;16.35;;;12.60;99.90;;;;;;4965660;28;20900;-70
2024/04/08 05:50:35;;;;;;;22.13;16.83;;;12.70;99.90;;;;;;4981707;28;20088;-69
2024/04/08 05:53:02;;;;;;;19.98;17.83;;;12.70;99.90;;;;;;4960798;28;20050;-69
2024/04/08 05:55:30;;;;;;;24.58;17.70;;;12.80;99.90;;;;;;5008503;28;20043;-68
2024/04/08 05:57:56;;;;;;;20.63;16.88;;;12.70;99.90;;;;;;4970476;28;20056;-70
2024/04/08 06:00:23;;;;;;;22.23;18.58;;;12.90;99.90;;;;;;4981607;28;20045;-70
2024/04/08 06:02:54;;;;;;;23.13;20.40;;;12.90;99.90;;;;;;4974040;28;20049;-70
2024/04/08 06:05:23;;;;;;;21.98;19.60;;;13.10;99.90;;;;;;4973002;28;20056;-69
2024/04/08 06:07:50;;;;;;;22.10;20.10;;;13.30;99.90;;;;;;4962821;28;20076;-69
2024/04/08 06:10:20;;;;;;;22.98;20.23;;;13.30;99.90;;;;;;5010674;28;20072;-70
2024/04/08 06:12:47;;;;;;;21.90;19.38;;;13.30;99.90;;;;;;4995056;28;20467;-71
2024/04/08 06:15:15;;;;;;;24.63;20.92;;;13.20;99.90;;;;;;4978985;28;20096;-68
2024/04/08 06:17:41;;;;;;;23.83;19.75;;;13.40;99.90;;;;;;4998664;28;20123;-70
2024/04/08 06:20:08;;;;;;;22.25;19.90;;;13.40;99.90;;;;;;4981495;28;20050;-70
2024/04/08 06:22:35;;;;;;;23.33;21.00;;;13.40;99.90;;;;;;4966342;28;20057;-70
2024/04/08 06:25:02;;;;;;;22.63;20.17;;;13.60;99.90;;;;;;4978825;28;20042;-73
2024/04/08 06:27:29;;;;;;;22.35;20.40;;;13.60;99.90;;;;;;4994044;28;20052;-68
2024/04/08 06:29:56;;;;;;;22.38;20.20;;;13.60;99.90;;;;;;5004871;28;20491;-69
2024/04/08 06:32:23;;;;;;;22.60;20.23;;;13.60;99.90;;;;;;4998355;28;20070;-69
2024/04/08 06:34:49;;;;;;;23.33;19.02;;;13.60;99.90;;;;;;5012957;28;20063;-68
2024/04/08 06:37:16;;;;;;;20.85;18.67;;;13.70;99.90;;;;;;4975697;28;20120;-70
2024/04/08 06:39:43;;;;;;;24.35;18.27;;;13.70;99.90;;;;;;4994919;28;20084;-70
2024/04/08 06:42:17;;;;;;;19.48;17.52;;;13.80;99.90;;;;;;4992167;28;20045;-69
2024/04/08 06:44:48;;;;;;;20.15;16.85;;;13.80;99.90;;;;;;5002954;28;20096;-70
2024/04/08 06:47:15;;;;;;;17.73;16.10;;;13.90;99.90;;;;;;5004540;28;20579;-69
2024/04/08 06:49:42;;;;;;;17.10;15.30;;;13.90;99.90;;;;;;5005349;28;20141;-70
2024/04/08 06:52:08;;;;;;;18.15;14.93;;;14.00;99.90;;;;;;4987585;28;20044;-70
2024/04/08 06:54:34;;;;;;;16.42;14.60;;;14.10;99.90;;;;;;5006876;28;20124;-70
2024/04/08 06:57:00;;;;;;;16.25;14.43;;;14.10;99.90;;;;;;4969606;28;20175;-68
2024/04/08 06:59:28;;;;;;;16.05;14.40;;;14.20;99.90;;;;;;4994347;28;20058;-70
2024/04/08 07:01:54;;;;;;;20.10;15.55;;;14.40;99.90;;;;;;5000129;28;20180;-70
2024/04/08 07:04:21;;;;;;;17.20;15.32;;;14.60;99.90;;;;;;4959497;28;20053;-70
2024/04/08 07:06:47;;;;;;;18.45;16.55;;;14.70;99.90;;;;;;4974842;28;20038;-69
2024/04/08 07:09:13;;;;;;;18.58;16.73;;;14.80;99.90;;;;;;4968278;28;20043;-69
2024/04/08 07:11:40;;;;;;;20.63;18.67;;;15.00;99.90;;;;;;4990034;28;20048;-69
2024/04/08 07:14:06;;;;;;;21.38;19.65;;;15.20;99.90;;;;;;4987283;28;20045;-70
2024/04/08 07:16:33;;;;;;;21.85;19.75;;;15.50;99.90;;;;;;4970311;28;20038;-69
2024/04/08 07:19:01;;;;;;;23.95;21.60;;;15.60;99.90;;;;;;4996036;28;20624;-70
2024/04/08 07:21:28;;;;;;;20.27;18.30;;;15.70;99.90;;;;;;4975817;28;20113;-72
2024/04/08 07:23:55;;;;;;;20.17;18.55;;;16.00;99.90;;;;;;4991101;28;20050;-72
2024/04/08 07:26:21;;;;;;;23.65;21.70;;;16.40;99.90;;;;;;5001531;28;20100;-71
2024/04/08 07:28:47;;;;;;;25.55;23.75;;;16.70;99.90;;;;;;4994808;28;20505;-69
2024/04/08 07:31:15;;;;;;;26.60;24.17;;;16.90;99.90;;;;;;4995373;28;20147;-69
2024/04/08 07:33:41;;;;;;;27.58;25.70;;;16.90;99.90;;;;;;4993278;28;20046;-70
2024/04/08 07:36:07;;;;;;;30.00;27.52;;;17.10;99.90;;;;;;4992719;28;20120;-71
2024/04/08 07:38:34;;;;;;;31.88;29.30;;;17.30;99.90;;;;;;4972020;28;22331;-69
2024/04/08 07:41:01;;;;;;;34.92;32.42;;;17.60;99.90;;;;;;4978124;28;20604;-70
2024/04/08 07:43:30;;;;;;;34.05;31.45;;;17.70;99.90;;;;;;4978938;28;20038;-71
2024/04/08 07:45:56;;;;;;;32.15;29.63;;;17.40;99.90;;;;;;5003187;28;20631;-70
2024/04/08 07:48:22;;;;;;;29.90;27.65;;;17.50;99.90;;;;;;4977971;28;20512;-71
2024/04/08 07:50:50;;;;;;;32.80;29.98;;;17.60;99.90;;;;;;4975247;28;20030;-71
2024/04/08 07:53:16;;;;;;;32.30;30.00;;;17.90;99.90;;;;;;4991060;28;20030;-70
2024/04/08 07:55:44;;;;;;;34.20;31.45;;;18.20;99.90;;;;;;4974281;28;20050;-71
2024/04/08 07:58:10;;;;;;;35.67;32.80;;;18.40;99.90;;;;;;5001239;28;20054;-70
2024/04/08 08:00:37;;;;;;;35.28;32.70;;;18.50;99.90;;;;;;4949013;28;20050;-70
2024/04/08 08:03:03;;;;;;;40.40;37.38;;;18.70;99.90;;;;;;4995560;28;20061;-71
2024/04/08 08:05:29;;;;;;;46.97;43.92;;;18.60;99.90;;;;;;4990458;28;20038;-70
2024/04/08 08:07:55;;;;;;;47.90;44.97;;;18.60;99.90;;;;;;4952073;28;20040;-69
2024/04/08 08:10:21;;;;;;;47.05;44.25;;;18.70;99.90;;;;;;4975214;28;20054;-71
2024/04/08 08:12:48;;;;;;;47.47;44.47;;;18.80;99.90;;;;;;4979532;28;20053;-71
2024/04/08 08:15:15;;;;;;;48.95;45.95;;;19.00;99.90;;;;;;5003741;28;20125;-69
2024/04/08 08:17:42;;;;;;;48.40;45.63;;;19.20;99.90;;;;;;4975757;28;20592;-70
2024/04/08 08:20:08;;;;;;;51.72;48.15;;;19.00;99.90;;;;;;4967993;28;20073;-70
2024/04/08 08:22:35;;;;;;;52.63;48.95;;;18.90;99.90;;;;;;4985424;28;20045;-69
2024/04/08 08:25:02;;;;;;;50.72;47.65;;;19.10;99.90;;;;;;4982328;28;20057;-71
2024/04/08 08:27:29;;;;;;;52.13;48.45;;;19.20;99.90;;;;;;4976229;28;20049;-71
2024/04/08 08:29:56;;;;;;;50.28;46.97;;;19.30;99.90;;;;;;4990203;28;20057;-69
2024/04/08 08:32:22;;;;;;;49.90;46.67;;;19.50;99.90;;;;;;4993463;28;20038;-71
2024/04/08 08:34:48;;;;;;;51.90;48.40;;;19.70;99.90;;;;;;5001780;28;20045;-68
2024/04/08 08:37:14;;;;;;;48.67;45.10;;;19.80;99.90;;;;;;4980571;28;20030;-68
2024/04/08 08:39:41;;;;;;;46.70;43.83;;;19.90;99.90;;;;;;4972596;28;20530;-71
2024/04/08 08:42:07;;;;;;;47.85;44.85;;;20.00;99.90;;;;;;4985859;28;20038;-67
2024/04/08 08:44:34;;;;;;;46.35;43.40;;;19.70;99.90;;;;;;4997417;28;20058;-68
2024/04/08 08:47:01;;;;;;;45.95;42.70;;;19.40;99.90;;;;;;4996683;28;20263;-69
2024/04/08 08:49:30;;;;;;;44.88;42.10;;;19.50;99.90;;;;;;4974816;28;20042;-69
2024/04/08 08:51:57;;;;;;;46.35;43.45;;;19.50;99.90;;;;;;4977040;28;20494;-69
2024/04/08 08:54:23;;;;;;;46.28;42.55;;;19.90;99.90;;;;;;4959393;28;20054;-69
2024/04/08 08:56:49;;;;;;;46.38;43.38;;;20.20;99.90;;;;;;4999807;28;20106;-70
2024/04/08 08:59:16;;;;;;;45.80;42.33;;;20.40;99.90;;;;;;4974546;28;20509;-69
2024/04/08 09:01:42;;;;;;;42.85;39.60;;;20.60;99.90;;;;;;4977783;28;20046;-69
2024/04/08 09:04:12;;;;;;;43.65;40.78;;;20.80;99.90;;;;;;4999641;28;20682;-68
2024/04/08 09:06:42;;;;;;;44.75;41.65;;;20.70;99.90;;;;;;4986130;28;20034;-70
2024/04/08 09:09:11;;;;;;;44.78;41.97;;;20.80;99.90;;;;;;4991200;28;20061;-68
2024/04/08 09:11:48;;;;;;;46.10;42.95;;;20.80;99.90;;;;;;4969725;28;20040;-70
2024/04/08 09:14:14;;;;;;;45.95;43.08;;;21.00;99.90;;;;;;4987146;28;20033;-69
2024/04/08 09:16:42;;;;;;;46.03;42.90;;;21.30;99.90;;;;;;4989963;28;20109;-70
2024/04/08 09:19:11;;;;;;;43.97;40.83;;;21.10;99.90;;;;;;4975719;28;20057;-70
2024/04/08 09:21:37;;;;;;;41.58;38.90;;;21.20;99.90;;;;;;4979766;28;20042;-70
2024/04/08 09:24:05;;;;;;;43.30;40.05;;;21.10;99.90;;;;;;4996564;28;20034;-70
2024/04/08 09:26:32;;;;;;;45.72;42.63;;;21.10;99.90;;;;;;4983429;28;20565;-69
2024/04/08 09:28:59;;;;;;;42.80;39.50;;;21.30;99.90;;;;;;4958598;28;20046;-71
2024/04/08 09:31:25;;;;;;;44.78;40.95;;;21.40;99.90;;;;;;4993240;28;20458;-68
2024/04/08 09:33:52;;;;;;;42.42;39.38;;;21.40;99.90;;;;;;4983278;28;20074;-71
2024/04/08 09:36:18;;;;;;;44.90;41.78;;;21.60;99.90;;;;;;4984567;28;20034;-70
2024/04/08 09:38:46;;;;;;;44.78;41.67;;;21.80;99.90;;;;;;4980271;28;20041;-70
2024/04/08 09:41:17;;;;;;;44.63;41.92;;;22.10;99.90;;;;;;4995147;28;20670;-70
2024/04/08 09:43:45;;;;;;;45.90;42.70;;;22.10;99.90;;;;;;4975436;28;20042;-70
2024/04/08 09:46:13;;;;;;;45.30;42.03;;;22.40;99.90;;;;;;4971779;28;20694;-70
2024/04/08 09:48:40;;;;;;;46.78;43.10;;;22.40;99.90;;;;;;5000544;28;20248;-69
2024/04/08 09:51:09;;;;;;;43.70;40.85;;;22.40;99.90;;;;;;4977720;28;20061;-70
2024/04/08 09:53:36;;;;;;;46.25;43.15;;;22.70;99.90;;;;;;4979570;28;20076;-71
2024/04/08 09:56:15;;;;;;;45.00;41.70;;;22.80;99.90;;;;;;4987762;28;20057;-69
2024/04/08 09:58:47;;;;;;;47.45;44.03;;;22.90;99.90;;;;;;5007428;28;20538;-69
2024/04/08 10:01:14;;;;;;;49.22;45.53;;;23.10;99.90;;;;;;4998998;23;20569;-78
2024/04/08 10:03:51;;;;;;;48.03;44.58;;;22.90;99.90;;;;;;4988293;28;20052;-76
2024/04/08 10:06:19;;;;;;;44.05;41.08;;;22.70;99.90;;;;;;4996167;28;20056;-74
2024/04/08 10:08:47;;;;;;;46.35;43.38;;;22.80;99.90;;;;;;5020060;28;20075;-77
2024/04/08 10:11:14;;;;;;;45.08;42.15;;;22.80;99.90;;;;;;4980953;28;20045;-77
2024/04/08 10:13:47;;;;;;;48.25;44.55;;;22.80;99.90;;;;;;4982546;28;20049;-81
2024/04/08 10:16:14;;;;;;;46.20;42.75;;;22.70;99.90;;;;;;4998435;28;20041;-79
2024/04/08 10:18:56;;;;;;;44.30;40.83;;;22.70;99.90;;;;;;4967927;28;20042;-80
2024/04/08 10:21:25;;;;;;;45.63;42.67;;;22.80;99.90;;;;;;5004842;28;20057;-79
2024/04/08 10:23:53;;;;;;;44.58;41.50;;;22.70;99.90;;;;;;5015850;28;20041;-77
2024/04/08 10:26:22;;;;;;;45.75;41.83;;;23.20;99.90;;;;;;5015282;28;20091;-79
2024/04/08 10:30:25;;;;;;;44.35;41.00;;;23.30;99.90;;;;;;5401447;26;20368;-71
2024/04/08 10:32:52;;;;;;;43.17;39.83;;;23.50;99.90;;;;;;5361543;26;20479;-74
2024/04/08 10:35:22;;;;;;;43.38;40.53;;;23.30;99.90;;;;;;5329788;26;20091;-74
2024/04/08 10:37:50;;;;;;;44.95;41.72;;;23.40;99.90;;;;;;5358114;26;20015;-73
2024/04/08 10:40:21;;;;;;;47.72;44.15;;;23.40;99.90;;;;;;5357999;26;20642;-72
2024/04/08 10:42:51;;;;;;;44.78;41.80;;;23.20;99.90;;;;;;5349977;26;20019;-72
2024/04/08 10:45:19;;;;;;;45.75;42.38;;;23.40;99.90;;;;;;5323878;26;20000;-72
2024/04/08 10:47:48;;;;;;;45.38;42.22;;;23.20;99.90;;;;;;5361218;26;20004;-73
2024/04/08 10:50:15;;;;;;;49.55;45.53;;;23.30;99.90;;;;;;5357283;26;20007;-71
2024/04/08 10:52:43;;;;;;;51.67;46.75;;;23.40;99.90;;;;;;5361757;26;20076;-73
2024/04/08 10:55:10;;;;;;;47.38;43.45;;;23.50;99.90;;;;;;5350446;26;20468;-72
2024/04/08 10:57:37;;;;;;;45.85;42.25;;;23.60;99.90;;;;;;5325381;26;20032;-72
2024/04/08 11:00:05;;;;;;;52.70;47.90;;;23.40;99.90;;;;;;5353978;26;20486;-72
2024/04/08 11:02:33;;;;;;;47.50;43.38;;;23.40;99.90;;;;;;5352192;26;20007;-73
2024/04/08 11:05:01;;;;;;;44.70;41.80;;;23.30;99.90;;;;;;5356582;26;20004;-73
2024/04/08 11:07:35;;;;;;;43.40;39.97;;;23.20;99.90;;;;;;5335875;26;20009;-72
2024/04/08 11:10:07;;;;;;;;;;;23.10;99.90;;;;;;5332440;26;20001;-73
2024/04/08 11:12:34;;;;;;;42.17;39.17;;;23.20;99.90;;;;;;5356189;26;19926;-73
2024/04/08 11:15:05;;;;;;;43.58;40.53;;;23.50;99.90;;;;;;5358194;26;20026;-75
2024/04/08 11:17:33;;;;;;;41.15;38.17;;;23.30;99.90;;;;;;5357557;26;20012;-73
2024/04/08 11:20:03;;;;;;;41.90;38.80;;;23.30;99.90;;;;;;5355096;26;20000;-74
2024/04/08 11:22:35;;;;;;;43.15;39.55;;;23.50;99.90;;;;;;5351860;26;19997;-73
2024/04/08 11:25:04;;;;;;;43.58;40.05;;;23.60;99.90;;;;;;5344455;26;20004;-73
2024/04/08 11:27:33;;;;;;;41.83;38.85;;;23.40;99.90;;;;;;5286941;26;20881;-73
2024/04/08 11:30:00;;;;;;;42.72;39.40;;;23.10;99.90;;;;;;5321257;26;20017;-73
2024/04/08 11:32:28;;;;;;;43.67;40.60;;;23.20;99.90;;;;;;5369772;26;20201;-73
2024/04/08 11:34:55;;;;;;;43.97;40.83;;;23.40;99.90;;;;;;5373876;26;20000;-73
2024/04/08 11:37:23;;;;;;;43.85;40.50;;;23.40;99.90;;;;;;5316365;26;20074;-73
2024/04/08 11:39:50;;;;;;;43.22;39.83;;;23.50;99.90;;;;;;5324274;26;20013;-72
2024/04/08 11:42:17;;;;;;;42.83;39.67;;;23.80;99.90;;;;;;5308497;26;20013;-72
2024/04/08 11:44:55;;;;;;;44.38;40.50;;;23.70;99.90;;;;;;5309517;26;20015;-72
2024/04/08 11:47:23;;;;;;;50.85;45.72;;;23.70;99.90;;;;;;5307018;26;20486;-73
2024/04/08 11:49:50;;;;;;;48.60;44.22;;;23.70;99.90;;;;;;5302817;26;20664;-72
2024/04/08 11:52:17;;;;;;;42.80;39.30;;;23.90;99.90;;;;;;5344386;26;21112;-71
2024/04/08 11:54:45;;;;;;;43.25;40.15;;;23.60;99.90;;;;;;5347199;26;20108;-72
2024/04/08 11:57:26;;;;;;;41.65;38.72;;;23.70;99.90;;;;;;5309998;26;20028;-72
2024/04/08 11:59:55;;;;;;;44.15;41.03;;;23.60;99.90;;;;;;5343369;26;20075;-72
2024/04/08 12:02:23;;;;;;;38.50;35.97;;;23.30;99.90;;;;;;5345994;26;20016;-73
2024/04/08 12:04:55;;;;;;;41.80;38.63;;;23.30;99.90;;;;;;5336402;26;20020;-72
2024/04/08 12:07:22;;;;;;;41.95;38.80;;;23.40;99.90;;;;;;5301638;26;20008;-72
2024/04/08 12:09:49;;;;;;;41.72;38.45;;;23.70;99.90;;;;;;5307280;26;20015;-73
2024/04/08 12:12:17;;;;;;;42.58;39.20;;;23.70;99.90;;;;;;5317899;26;20000;-71
2024/04/08 12:14:47;;;;;;;41.25;38.42;;;23.70;99.90;;;;;;5313407;26;20432;-73
2024/04/08 12:17:14;;;;;;;42.45;39.60;;;23.70;99.90;;;;;;5306222;26;20024;-74
2024/04/08 12:19:41;;;;;;;41.88;38.83;;;23.80;99.90;;;;;;5331028;26;20755;-74
2024/04/08 12:22:12;;;;;;;44.15;40.40;;;23.80;99.90;;;;;;5319970;26;20016;-74
2024/04/08 12:24:39;;;;;;;41.85;38.75;;;24.10;99.90;;;;;;5312413;26;20011;-73
2024/04/08 12:27:07;;;;;;;42.33;39.05;;;24.10;99.90;;;;;;5311460;26;20005;-73
2024/04/08 12:29:34;;;;;;;42.90;38.53;;;24.10;99.90;;;;;;5299642;26;20079;-73